sensor_id;sensor_type;location;lat;lon;timestamp;temperature;humidity
33207;DHT22;19565;46.602;11.534;2023-09-07T00:01:06;19.80;99.90
33207;DHT22;19565;46.602;11.534;2023-09-07T00:03:35;19.80;99.90
33207;DHT22;19565;46.602;11.534;2023-09-07T00:06:09;19.80;99.90
33207;DHT22;19565;46.602;11.534;2023-09-07T00:08:37;19.80;99.90
33207;DHT22;19565;46.602;11.534;2023-09-07T00:11:05;19.80;99.90
33207;DHT22;19565;46.602;11.534;2023-09-07T00:13:35;19.80;99.90
33207;DHT22;19565;46.602;11.534;2023-09-07T00:16:04;19.80;99.90
33207;DHT22;19565;46.602;11.534;2023-09-07T00:18:33;19.70;99.90
33207;DHT22;19565;46.602;11.534;2023-09-07T00:21:01;19.70;99.90
33207;DHT22;19565;46.602;11.534;2023-09-07T00:23:29;19.60;99.90
33207;DHT22;19565;46.602;11.534;2023-09-07T00:25:57;19.60;99.90
33207;DHT22;19565;46.602;11.534;2023-09-07T00:28:25;19.60;99.90
33207;DHT22;19565;46.602;11.534;2023-09-07T00:30:55;19.60;99.90
33207;DHT22;19565;46.602;11.534;2023-09-07T00:33:23;19.60;99.90
33207;DHT22;19565;46.602;11.534;2023-09-07T00:35:51;19.60;99.90
33207;DHT22;19565;46.602;11.534;2023-09-07T00:38:19;19.60;99.90
33207;DHT22;19565;46.602;11.534;2023-09-07T00:40:46;19.60;99.90
33207;DHT22;19565;46.602;11.534;2023-09-07T00:43:14;19.50;99.90
33207;DHT22;19565;46.602;11.534;2023-09-07T00:45:42;19.50;99.90
33207;DHT22;19565;46.602;11.534;2023-09-07T00:48:15;19.50;99.90
33207;DHT22;19565;46.602;11.534;2023-09-07T00:50:44;19.40;99.90
33207;DHT22;19565;46.602;11.534;2023-09-07T00:53:12;19.40;99.90
33207;DHT22;19565;46.602;11.534;2023-09-07T00:55:40;19.40;99.90
33207;DHT22;19565;46.602;11.534;2023-09-07T00:58:08;19.50;99.90
33207;DHT22;19565;46.602;11.534;2023-09-07T01:00:39;19.50;99.90
33207;DHT22;19565;46.602;11.534;2023-09-07T01:03:07;19.50;99.90
33207;DHT22;19565;46.602;11.534;2023-09-07T01:05:43;19.50;99.90
33207;DHT22;19565;46.602;11.534;2023-09-07T01:08:18;19.50;99.90
33207;DHT22;19565;46.602;11.534;2023-09-07T01:10:47;19.60;99.90
33207;DHT22;19565;46.602;11.534;2023-09-07T01:13:16;19.50;99.90
33207;DHT22;19565;46.602;11.534;2023-09-07T01:15:44;19.50;99.90
33207;DHT22;19565;46.602;11.534;2023-09-07T01:18:12;19.40;99.90
33207;DHT22;19565;46.602;11.534;2023-09-07T01:20:48;19.40;99.90
33207;DHT22;19565;46.602;11.534;2023-09-07T01:23:18;19.40;99.90
33207;DHT22;19565;46.602;11.534;2023-09-07T01:25:47;19.40;99.90
33207;DHT22;19565;46.602;11.534;2023-09-07T01:28:16;19.30;99.90
33207;DHT22;19565;46.602;11.534;2023-09-07T01:30:45;19.30;99.90
33207;DHT22;19565;46.602;11.534;2023-09-07T01:33:13;19.30;99.90
33207;DHT22;19565;46.602;11.534;2023-09-07T01:35:41;19.30;99.90
33207;DHT22;19565;46.602;11.534;2023-09-07T01:38:09;19.20;99.90
33207;DHT22;19565;46.602;11.534;2023-09-07T01:40:38;19.20;99.90
33207;DHT22;19565;46.602;11.534;2023-09-07T01:43:06;19.20;99.90
33207;DHT22;19565;46.602;11.534;2023-09-07T01:45:34;19.10;99.90
33207;DHT22;19565;46.602;11.534;2023-09-07T01:48:03;19.10;99.90
33207;DHT22;19565;46.602;11.534;2023-09-07T01:50:31;19.10;99.90
33207;DHT22;19565;46.602;11.534;2023-09-07T01:52:59;19.10;99.90
33207;DHT22;19565;46.602;11.534;2023-09-07T01:55:27;19.10;99.90
33207;DHT22;19565;46.602;11.534;2023-09-07T01:57:57;19.10;99.90
33207;DHT22;19565;46.602;11.534;2023-09-07T02:00:24;19.10;99.90
33207;DHT22;19565;46.602;11.534;2023-09-07T02:02:52;19.10;99.90
33207;DHT22;19565;46.602;11.534;2023-09-07T02:05:20;19.10;99.90
33207;DHT22;19565;46.602;11.534;2023-09-07T02:07:49;19.00;99.90
33207;DHT22;19565;46.602;11.534;2023-09-07T02:10:17;19.00;99.90
33207;DHT22;19565;46.602;11.534;2023-09-07T02:12:45;19.00;99.90
33207;DHT22;19565;46.602;11.534;2023-09-07T02:15:15;19.00;99.90
33207;DHT22;19565;46.602;11.534;2023-09-07T02:17:43;19.00;99.90
33207;DHT22;19565;46.602;11.534;2023-09-07T02:20:12;19.10;99.90
33207;DHT22;19565;46.602;11.534;2023-09-07T02:22:40;19.00;99.90
33207;DHT22;19565;46.602;11.534;2023-09-07T02:25:08;19.00;99.90
33207;DHT22;19565;46.602;11.534;2023-09-07T02:27:36;19.00;99.90
33207;DHT22;19565;46.602;11.534;2023-09-07T02:30:05;19.00;99.90
33207;DHT22;19565;46.602;11.534;2023-09-07T02:32:34;19.00;99.90
33207;DHT22;19565;46.602;11.534;2023-09-07T02:35:03;19.00;99.90
33207;DHT22;19565;46.602;11.534;2023-09-07T02:37:31;19.00;99.90
33207;DHT22;19565;46.602;11.534;2023-09-07T02:39:59;19.00;99.90
33207;DHT22;19565;46.602;11.534;2023-09-07T02:42:27;19.00;99.90
33207;DHT22;19565;46.602;11.534;2023-09-07T02:44:55;19.00;99.90
33207;DHT22;19565;46.602;11.534;2023-09-07T02:47:23;18.90;99.90
33207;DHT22;19565;46.602;11.534;2023-09-07T02:49:52;18.90;99.90
33207;DHT22;19565;46.602;11.534;2023-09-07T02:52:20;18.90;99.90
33207;DHT22;19565;46.602;11.534;2023-09-07T02:54:49;18.90;99.90
33207;DHT22;19565;46.602;11.534;2023-09-07T02:57:17;18.90;99.90
33207;DHT22;19565;46.602;11.534;2023-09-07T02:59:45;18.90;99.90
33207;DHT22;19565;46.602;11.534;2023-09-07T03:02:13;18.80;99.90
33207;DHT22;19565;46.602;11.534;2023-09-07T03:04:41;18.70;99.90
33207;DHT22;19565;46.602;11.534;2023-09-07T03:07:10;18.70;99.90
33207;DHT22;19565;46.602;11.534;2023-09-07T03:09:38;18.70;99.90
33207;DHT22;19565;46.602;11.534;2023-09-07T03:12:06;18.70;99.90
33207;DHT22;19565;46.602;11.534;2023-09-07T03:14:34;18.70;99.90
33207;DHT22;19565;46.602;11.534;2023-09-07T03:17:02;18.80;99.90
33207;DHT22;19565;46.602;11.534;2023-09-07T03:19:31;18.80;99.90
33207;DHT22;19565;46.602;11.534;2023-09-07T03:21:59;18.80;99.90
33207;DHT22;19565;46.602;11.534;2023-09-07T03:24:28;18.80;99.90
33207;DHT22;19565;46.602;11.534;2023-09-07T03:26:56;18.80;99.90
33207;DHT22;19565;46.602;11.534;2023-09-07T03:29:25;18.80;99.90
33207;DHT22;19565;46.602;11.534;2023-09-07T03:31:53;18.80;99.90
33207;DHT22;19565;46.602;11.534;2023-09-07T03:34:21;18.80;99.90
33207;DHT22;19565;46.602;11.534;2023-09-07T03:36:49;18.80;99.90
33207;DHT22;19565;46.602;11.534;2023-09-07T03:39:17;18.80;99.90
33207;DHT22;19565;46.602;11.534;2023-09-07T03:41:49;18.80;99.90
33207;DHT22;19565;46.602;11.534;2023-09-07T03:44:18;18.80;99.90
33207;DHT22;19565;46.602;11.534;2023-09-07T03:46:46;18.70;99.90
33207;DHT22;19565;46.602;11.534;2023-09-07T03:49:14;18.70;99.90
33207;DHT22;19565;46.602;11.534;2023-09-07T03:51:42;18.70;99.90
33207;DHT22;19565;46.602;11.534;2023-09-07T03:54:10;18.70;99.90
33207;DHT22;19565;46.602;11.534;2023-09-07T03:56:38;18.70;99.90
33207;DHT22;19565;46.602;11.534;2023-09-07T03:59:08;18.70;99.90
33207;DHT22;19565;46.602;11.534;2023-09-07T04:01:37;18.70;99.90
33207;DHT22;19565;46.602;11.534;2023-09-07T04:04:06;18.70;99.90
33207;DHT22;19565;46.602;11.534;2023-09-07T04:06:34;18.70;99.90
33207;DHT22;19565;46.602;11.534;2023-09-07T04:09:02;18.70;99.90
33207;DHT22;19565;46.602;11.534;2023-09-07T04:11:30;18.60;99.90
33207;DHT22;19565;46.602;11.534;2023-09-07T04:13:58;18.60;99.90
33207;DHT22;19565;46.602;11.534;2023-09-07T04:16:27;18.60;99.90
33207;DHT22;19565;46.602;11.534;2023-09-07T04:18:55;18.50;99.90
33207;DHT22;19565;46.602;11.534;2023-09-07T04:21:23;18.60;99.90
33207;DHT22;19565;46.602;11.534;2023-09-07T04:23:51;18.40;99.90
33207;DHT22;19565;46.602;11.534;2023-09-07T04:26:19;18.30;99.90
33207;DHT22;19565;46.602;11.534;2023-09-07T04:28:48;18.30;99.90
33207;DHT22;19565;46.602;11.534;2023-09-07T04:31:16;18.40;99.90
33207;DHT22;19565;46.602;11.534;2023-09-07T04:33:46;18.30;99.90
33207;DHT22;19565;46.602;11.534;2023-09-07T04:36:14;18.30;99.90
33207;DHT22;19565;46.602;11.534;2023-09-07T04:38:42;18.20;99.90
33207;DHT22;19565;46.602;11.534;2023-09-07T04:41:11;18.30;99.90
33207;DHT22;19565;46.602;11.534;2023-09-07T04:43:41;18.20;99.90
33207;DHT22;19565;46.602;11.534;2023-09-07T04:46:10;18.00;99.90
33207;DHT22;19565;46.602;11.534;2023-09-07T04:48:39;18.00;99.90
33207;DHT22;19565;46.602;11.534;2023-09-07T04:51:10;17.80;99.90
33207;DHT22;19565;46.602;11.534;2023-09-07T04:53:39;17.70;99.90
33207;DHT22;19565;46.602;11.534;2023-09-07T04:56:08;17.70;99.90
33207;DHT22;19565;46.602;11.534;2023-09-07T04:58:36;17.60;99.90
33207;DHT22;19565;46.602;11.534;2023-09-07T05:01:05;17.50;99.90
33207;DHT22;19565;46.602;11.534;2023-09-07T05:03:33;17.60;99.90
33207;DHT22;19565;46.602;11.534;2023-09-07T05:06:01;17.50;99.90
33207;DHT22;19565;46.602;11.534;2023-09-07T05:08:31;17.40;99.90
33207;DHT22;19565;46.602;11.534;2023-09-07T05:11:01;17.50;99.90
33207;DHT22;19565;46.602;11.534;2023-09-07T05:13:30;17.40;99.90
33207;DHT22;19565;46.602;11.534;2023-09-07T05:15:59;17.50;99.90
33207;DHT22;19565;46.602;11.534;2023-09-07T05:18:27;17.50;99.90
33207;DHT22;19565;46.602;11.534;2023-09-07T05:20:56;17.50;99.90
33207;DHT22;19565;46.602;11.534;2023-09-07T05:23:24;17.50;99.90
33207;DHT22;19565;46.602;11.534;2023-09-07T05:25:54;17.60;99.90
33207;DHT22;19565;46.602;11.534;2023-09-07T05:28:23;17.70;99.90
33207;DHT22;19565;46.602;11.534;2023-09-07T05:30:51;17.70;99.90
33207;DHT22;19565;46.602;11.534;2023-09-07T05:33:19;17.60;99.90
33207;DHT22;19565;46.602;11.534;2023-09-07T05:35:47;17.80;99.90
33207;DHT22;19565;46.602;11.534;2023-09-07T05:38:15;17.80;99.90
33207;DHT22;19565;46.602;11.534;2023-09-07T05:40:44;17.70;99.90
33207;DHT22;19565;46.602;11.534;2023-09-07T05:43:13;17.70;99.90
33207;DHT22;19565;46.602;11.534;2023-09-07T05:45:41;17.70;99.90
33207;DHT22;19565;46.602;11.534;2023-09-07T05:48:09;17.70;99.90
33207;DHT22;19565;46.602;11.534;2023-09-07T05:50:38;17.80;99.90
33207;DHT22;19565;46.602;11.534;2023-09-07T05:53:06;17.80;99.90
33207;DHT22;19565;46.602;11.534;2023-09-07T05:55:35;17.70;99.90
33207;DHT22;19565;46.602;11.534;2023-09-07T05:58:05;17.60;99.90
33207;DHT22;19565;46.602;11.534;2023-09-07T06:00:35;17.60;99.90
33207;DHT22;19565;46.602;11.534;2023-09-07T06:03:06;17.50;99.90
33207;DHT22;19565;46.602;11.534;2023-09-07T06:05:35;17.40;99.90
33207;DHT22;19565;46.602;11.534;2023-09-07T06:08:05;17.40;99.90
33207;DHT22;19565;46.602;11.534;2023-09-07T06:10:34;17.30;99.90
33207;DHT22;19565;46.602;11.534;2023-09-07T06:13:02;17.30;99.90
33207;DHT22;19565;46.602;11.534;2023-09-07T06:15:31;17.30;99.90
33207;DHT22;19565;46.602;11.534;2023-09-07T06:18:00;17.40;99.90
33207;DHT22;19565;46.602;11.534;2023-09-07T06:20:29;17.60;99.90
33207;DHT22;19565;46.602;11.534;2023-09-07T06:22:57;17.60;99.90
33207;DHT22;19565;46.602;11.534;2023-09-07T06:25:25;17.70;99.90
33207;DHT22;19565;46.602;11.534;2023-09-07T06:27:54;17.80;99.90
33207;DHT22;19565;46.602;11.534;2023-09-07T06:30:22;17.80;99.90
33207;DHT22;19565;46.602;11.534;2023-09-07T06:32:49;17.90;99.90
33207;DHT22;19565;46.602;11.534;2023-09-07T06:35:21;18.00;99.90
33207;DHT22;19565;46.602;11.534;2023-09-07T06:37:49;18.00;99.90
33207;DHT22;19565;46.602;11.534;2023-09-07T06:40:17;18.10;99.90
33207;DHT22;19565;46.602;11.534;2023-09-07T06:42:45;18.10;99.90
33207;DHT22;19565;46.602;11.534;2023-09-07T06:45:13;18.10;99.90
33207;DHT22;19565;46.602;11.534;2023-09-07T06:47:41;18.20;99.90
33207;DHT22;19565;46.602;11.534;2023-09-07T06:50:09;18.20;99.90
33207;DHT22;19565;46.602;11.534;2023-09-07T06:52:39;18.20;99.90
33207;DHT22;19565;46.602;11.534;2023-09-07T06:55:07;18.30;99.90
33207;DHT22;19565;46.602;11.534;2023-09-07T06:57:35;18.20;99.90
33207;DHT22;19565;46.602;11.534;2023-09-07T07:00:04;18.20;99.90
33207;DHT22;19565;46.602;11.534;2023-09-07T07:02:33;18.20;99.90
33207;DHT22;19565;46.602;11.534;2023-09-07T07:05:03;18.20;99.90
33207;DHT22;19565;46.602;11.534;2023-09-07T07:07:32;18.10;99.90
33207;DHT22;19565;46.602;11.534;2023-09-07T07:10:01;18.10;99.90
33207;DHT22;19565;46.602;11.534;2023-09-07T07:12:30;18.10;99.90
33207;DHT22;19565;46.602;11.534;2023-09-07T07:15:01;18.10;99.90
33207;DHT22;19565;46.602;11.534;2023-09-07T07:17:31;18.10;99.90
33207;DHT22;19565;46.602;11.534;2023-09-07T07:19:59;18.10;99.90
33207;DHT22;19565;46.602;11.534;2023-09-07T07:22:28;18.20;99.90
33207;DHT22;19565;46.602;11.534;2023-09-07T07:24:58;18.30;99.90
33207;DHT22;19565;46.602;11.534;2023-09-07T07:27:33;18.40;99.90
33207;DHT22;19565;46.602;11.534;2023-09-07T07:30:01;18.50;99.90
33207;DHT22;19565;46.602;11.534;2023-09-07T07:32:29;18.50;99.90
33207;DHT22;19565;46.602;11.534;2023-09-07T07:34:57;18.60;99.90
33207;DHT22;19565;46.602;11.534;2023-09-07T07:37:25;18.60;99.90
33207;DHT22;19565;46.602;11.534;2023-09-07T07:39:53;18.70;99.90
33207;DHT22;19565;46.602;11.534;2023-09-07T07:42:21;18.80;99.90
33207;DHT22;19565;46.602;11.534;2023-09-07T07:44:50;18.90;99.90
33207;DHT22;19565;46.602;11.534;2023-09-07T07:47:18;18.90;99.90
33207;DHT22;19565;46.602;11.534;2023-09-07T07:49:46;19.00;99.90
33207;DHT22;19565;46.602;11.534;2023-09-07T07:52:14;19.10;99.90
33207;DHT22;19565;46.602;11.534;2023-09-07T07:54:42;19.10;99.90
33207;DHT22;19565;46.602;11.534;2023-09-07T07:57:10;19.10;99.90
33207;DHT22;19565;46.602;11.534;2023-09-07T07:59:38;19.20;99.90
33207;DHT22;19565;46.602;11.534;2023-09-07T08:02:08;19.20;99.70
33207;DHT22;19565;46.602;11.534;2023-09-07T08:04:36;19.30;99.80
33207;DHT22;19565;46.602;11.534;2023-09-07T08:07:04;19.30;99.30
33207;DHT22;19565;46.602;11.534;2023-09-07T08:09:34;19.30;98.80
33207;DHT22;19565;46.602;11.534;2023-09-07T08:12:02;19.40;99.10
33207;DHT22;19565;46.602;11.534;2023-09-07T08:14:30;19.50;99.30
33207;DHT22;19565;46.602;11.534;2023-09-07T08:16:59;19.50;98.90
33207;DHT22;19565;46.602;11.534;2023-09-07T08:19:29;19.50;98.90
33207;DHT22;19565;46.602;11.534;2023-09-07T08:21:58;19.60;98.80
33207;DHT22;19565;46.602;11.534;2023-09-07T08:24:26;19.60;98.80
33207;DHT22;19565;46.602;11.534;2023-09-07T08:26:54;19.70;98.60
33207;DHT22;19565;46.602;11.534;2023-09-07T08:29:23;19.80;98.50
33207;DHT22;19565;46.602;11.534;2023-09-07T08:31:53;19.80;98.50
33207;DHT22;19565;46.602;11.534;2023-09-07T08:34:25;19.80;98.30
33207;DHT22;19565;46.602;11.534;2023-09-07T08:36:54;19.90;98.30
33207;DHT22;19565;46.602;11.534;2023-09-07T08:39:25;19.90;97.60
33207;DHT22;19565;46.602;11.534;2023-09-07T08:41:56;20.00;97.80
33207;DHT22;19565;46.602;11.534;2023-09-07T08:44:29;20.10;97.80
33207;DHT22;19565;46.602;11.534;2023-09-07T08:46:57;20.10;97.70
33207;DHT22;19565;46.602;11.534;2023-09-07T08:49:27;20.10;97.40
33207;DHT22;19565;46.602;11.534;2023-09-07T08:51:58;20.20;97.40
33207;DHT22;19565;46.602;11.534;2023-09-07T08:54:26;20.20;97.40
33207;DHT22;19565;46.602;11.534;2023-09-07T08:56:56;20.30;97.20
33207;DHT22;19565;46.602;11.534;2023-09-07T08:59:24;20.30;97.00
33207;DHT22;19565;46.602;11.534;2023-09-07T09:01:56;20.40;96.60
33207;DHT22;19565;46.602;11.534;2023-09-07T09:04:25;20.40;96.70
33207;DHT22;19565;46.602;11.534;2023-09-07T09:06:56;20.50;96.80
33207;DHT22;19565;46.602;11.534;2023-09-07T09:09:25;20.50;96.20
33207;DHT22;19565;46.602;11.534;2023-09-07T09:11:53;20.50;96.40
33207;DHT22;19565;46.602;11.534;2023-09-07T09:14:22;20.60;96.10
33207;DHT22;19565;46.602;11.534;2023-09-07T09:16:50;20.70;96.30
33207;DHT22;19565;46.602;11.534;2023-09-07T09:19:18;20.70;96.20
33207;DHT22;19565;46.602;11.534;2023-09-07T09:21:46;20.80;96.40
33207;DHT22;19565;46.602;11.534;2023-09-07T09:24:18;20.80;96.50
33207;DHT22;19565;46.602;11.534;2023-09-07T09:26:46;20.90;96.20
33207;DHT22;19565;46.602;11.534;2023-09-07T09:29:14;20.90;95.90
33207;DHT22;19565;46.602;11.534;2023-09-07T09:31:43;21.00;96.00
33207;DHT22;19565;46.602;11.534;2023-09-07T09:34:11;21.00;95.50
33207;DHT22;19565;46.602;11.534;2023-09-07T09:36:42;21.10;95.20
33207;DHT22;19565;46.602;11.534;2023-09-07T09:39:10;21.10;94.90
33207;DHT22;19565;46.602;11.534;2023-09-07T09:41:40;21.20;93.90
33207;DHT22;19565;46.602;11.534;2023-09-07T09:44:09;21.20;94.50
33207;DHT22;19565;46.602;11.534;2023-09-07T09:46:38;21.30;95.20
33207;DHT22;19565;46.602;11.534;2023-09-07T09:49:08;21.40;94.60
33207;DHT22;19565;46.602;11.534;2023-09-07T09:51:39;21.40;94.30
33207;DHT22;19565;46.602;11.534;2023-09-07T09:54:10;21.50;94.10
33207;DHT22;19565;46.602;11.534;2023-09-07T09:56:40;21.50;94.30
33207;DHT22;19565;46.602;11.534;2023-09-07T09:59:08;21.50;93.50
33207;DHT22;19565;46.602;11.534;2023-09-07T10:01:43;21.60;93.10
33207;DHT22;19565;46.602;11.534;2023-09-07T10:04:13;21.60;93.40
33207;DHT22;19565;46.602;11.534;2023-09-07T10:06:53;21.70;93.20
33207;DHT22;19565;46.602;11.534;2023-09-07T10:09:21;21.80;93.50
33207;DHT22;19565;46.602;11.534;2023-09-07T10:11:54;21.80;93.90
33207;DHT22;19565;46.602;11.534;2023-09-07T10:14:22;21.80;94.00
33207;DHT22;19565;46.602;11.534;2023-09-07T10:16:51;21.90;94.30
33207;DHT22;19565;46.602;11.534;2023-09-07T10:19:23;21.90;93.70
33207;DHT22;19565;46.602;11.534;2023-09-07T10:21:55;22.00;93.40
33207;DHT22;19565;46.602;11.534;2023-09-07T10:24:26;22.00;93.20
33207;DHT22;19565;46.602;11.534;2023-09-07T10:27:04;22.00;93.20
33207;DHT22;19565;46.602;11.534;2023-09-07T10:29:41;22.10;93.20
33207;DHT22;19565;46.602;11.534;2023-09-07T10:32:10;22.20;93.30
33207;DHT22;19565;46.602;11.534;2023-09-07T10:34:41;22.20;92.90
33207;DHT22;19565;46.602;11.534;2023-09-07T10:37:10;22.20;93.10
33207;DHT22;19565;46.602;11.534;2023-09-07T10:39:40;22.30;93.50
33207;DHT22;19565;46.602;11.534;2023-09-07T10:42:21;22.30;93.30
33207;DHT22;19565;46.602;11.534;2023-09-07T10:44:50;22.40;93.30
33207;DHT22;19565;46.602;11.534;2023-09-07T10:47:19;22.40;94.10
33207;DHT22;19565;46.602;11.534;2023-09-07T10:49:47;22.50;93.20
33207;DHT22;19565;46.602;11.534;2023-09-07T10:52:15;22.50;93.30
33207;DHT22;19565;46.602;11.534;2023-09-07T10:54:44;22.60;92.40
33207;DHT22;19565;46.602;11.534;2023-09-07T10:57:12;22.60;92.00
33207;DHT22;19565;46.602;11.534;2023-09-07T10:59:46;22.70;91.80
33207;DHT22;19565;46.602;11.534;2023-09-07T11:02:15;22.80;91.80
33207;DHT22;19565;46.602;11.534;2023-09-07T11:04:43;22.80;92.20
33207;DHT22;19565;46.602;11.534;2023-09-07T11:07:12;22.90;92.20
33207;DHT22;19565;46.602;11.534;2023-09-07T11:09:40;22.90;92.10
33207;DHT22;19565;46.602;11.534;2023-09-07T11:12:12;23.00;92.30
33207;DHT22;19565;46.602;11.534;2023-09-07T11:14:40;23.00;92.30
33207;DHT22;19565;46.602;11.534;2023-09-07T11:17:10;23.10;91.80
33207;DHT22;19565;46.602;11.534;2023-09-07T11:19:38;23.10;91.10
33207;DHT22;19565;46.602;11.534;2023-09-07T11:22:08;23.10;90.60
33207;DHT22;19565;46.602;11.534;2023-09-07T11:24:37;23.20;90.70
33207;DHT22;19565;46.602;11.534;2023-09-07T11:27:05;23.20;90.90
33207;DHT22;19565;46.602;11.534;2023-09-07T11:29:33;23.30;90.60
33207;DHT22;19565;46.602;11.534;2023-09-07T11:32:09;23.40;90.00
33207;DHT22;19565;46.602;11.534;2023-09-07T11:34:47;23.40;91.30
33207;DHT22;19565;46.602;11.534;2023-09-07T11:37:16;23.50;90.60
33207;DHT22;19565;46.602;11.534;2023-09-07T11:39:44;23.50;90.50
33207;DHT22;19565;46.602;11.534;2023-09-07T11:42:13;23.60;90.40
33207;DHT22;19565;46.602;11.534;2023-09-07T11:44:41;23.60;90.90
33207;DHT22;19565;46.602;11.534;2023-09-07T11:47:10;23.60;91.30
33207;DHT22;19565;46.602;11.534;2023-09-07T11:49:38;23.70;91.80
33207;DHT22;19565;46.602;11.534;2023-09-07T11:52:06;23.70;91.20
33207;DHT22;19565;46.602;11.534;2023-09-07T11:54:34;23.80;91.70
33207;DHT22;19565;46.602;11.534;2023-09-07T11:57:02;23.90;91.60
33207;DHT22;19565;46.602;11.534;2023-09-07T11:59:30;23.90;91.20
33207;DHT22;19565;46.602;11.534;2023-09-07T12:02:15;23.90;90.70
33207;DHT22;19565;46.602;11.534;2023-09-07T12:04:44;24.10;90.90
33207;DHT22;19565;46.602;11.534;2023-09-07T12:07:12;24.00;91.10
33207;DHT22;19565;46.602;11.534;2023-09-07T12:09:40;24.10;91.10
33207;DHT22;19565;46.602;11.534;2023-09-07T12:12:08;24.20;90.80
33207;DHT22;19565;46.602;11.534;2023-09-07T12:14:37;24.20;90.80
33207;DHT22;19565;46.602;11.534;2023-09-07T12:17:05;24.20;90.60
33207;DHT22;19565;46.602;11.534;2023-09-07T12:19:35;24.30;90.40
33207;DHT22;19565;46.602;11.534;2023-09-07T12:22:03;24.30;90.30
33207;DHT22;19565;46.602;11.534;2023-09-07T12:24:31;24.30;90.20
33207;DHT22;19565;46.602;11.534;2023-09-07T12:26:59;24.30;90.10
33207;DHT22;19565;46.602;11.534;2023-09-07T12:29:27;24.40;90.30
33207;DHT22;19565;46.602;11.534;2023-09-07T12:31:56;24.40;90.10
33207;DHT22;19565;46.602;11.534;2023-09-07T12:34:24;24.50;90.50
33207;DHT22;19565;46.602;11.534;2023-09-07T12:36:55;24.50;90.70
33207;DHT22;19565;46.602;11.534;2023-09-07T12:39:23;24.50;90.80
33207;DHT22;19565;46.602;11.534;2023-09-07T12:41:51;24.50;90.80
33207;DHT22;19565;46.602;11.534;2023-09-07T12:44:19;24.60;90.90
33207;DHT22;19565;46.602;11.534;2023-09-07T12:46:47;24.60;91.00
33207;DHT22;19565;46.602;11.534;2023-09-07T12:49:15;24.60;90.90
33207;DHT22;19565;46.602;11.534;2023-09-07T12:51:45;24.60;91.20
33207;DHT22;19565;46.602;11.534;2023-09-07T12:54:14;24.60;90.90
33207;DHT22;19565;46.602;11.534;2023-09-07T12:56:43;24.70;91.20
33207;DHT22;19565;46.602;11.534;2023-09-07T12:59:12;24.70;91.30
33207;DHT22;19565;46.602;11.534;2023-09-07T13:01:40;24.80;91.50
33207;DHT22;19565;46.602;11.534;2023-09-07T13:04:09;24.80;91.40
33207;DHT22;19565;46.602;11.534;2023-09-07T13:06:38;24.80;91.10
33207;DHT22;19565;46.602;11.534;2023-09-07T13:09:06;24.90;90.70
33207;DHT22;19565;46.602;11.534;2023-09-07T13:11:37;24.90;90.60
33207;DHT22;19565;46.602;11.534;2023-09-07T13:14:06;24.90;90.50
33207;DHT22;19565;46.602;11.534;2023-09-07T13:16:38;24.90;90.40
33207;DHT22;19565;46.602;11.534;2023-09-07T13:19:06;25.00;90.20
33207;DHT22;19565;46.602;11.534;2023-09-07T13:21:34;25.00;90.00
33207;DHT22;19565;46.602;11.534;2023-09-07T13:24:02;25.00;89.20
33207;DHT22;19565;46.602;11.534;2023-09-07T13:26:30;25.00;88.60
33207;DHT22;19565;46.602;11.534;2023-09-07T13:29:00;25.00;89.20
33207;DHT22;19565;46.602;11.534;2023-09-07T13:31:29;25.10;89.10
33207;DHT22;19565;46.602;11.534;2023-09-07T13:33:57;25.10;89.30
33207;DHT22;19565;46.602;11.534;2023-09-07T13:36:25;25.10;89.70
33207;DHT22;19565;46.602;11.534;2023-09-07T13:38:53;25.10;89.00
33207;DHT22;19565;46.602;11.534;2023-09-07T13:41:23;25.20;89.80
33207;DHT22;19565;46.602;11.534;2023-09-07T13:43:51;25.30;90.10
33207;DHT22;19565;46.602;11.534;2023-09-07T13:46:22;25.30;90.00
33207;DHT22;19565;46.602;11.534;2023-09-07T13:48:50;25.30;90.00
33207;DHT22;19565;46.602;11.534;2023-09-07T13:51:20;25.30;90.00
33207;DHT22;19565;46.602;11.534;2023-09-07T13:53:48;25.40;90.30
33207;DHT22;19565;46.602;11.534;2023-09-07T13:56:17;25.40;90.50
33207;DHT22;19565;46.602;11.534;2023-09-07T13:58:45;25.50;90.70
33207;DHT22;19565;46.602;11.534;2023-09-07T14:01:13;25.50;90.70
33207;DHT22;19565;46.602;11.534;2023-09-07T14:03:43;25.50;90.60
33207;DHT22;19565;46.602;11.534;2023-09-07T14:06:11;25.60;90.20
33207;DHT22;19565;46.602;11.534;2023-09-07T14:08:39;25.70;90.20
33207;DHT22;19565;46.602;11.534;2023-09-07T14:11:07;25.80;90.10
33207;DHT22;19565;46.602;11.534;2023-09-07T14:13:35;25.80;90.10
33207;DHT22;19565;46.602;11.534;2023-09-07T14:16:03;25.80;90.50
33207;DHT22;19565;46.602;11.534;2023-09-07T14:18:31;25.90;90.60
33207;DHT22;19565;46.602;11.534;2023-09-07T14:21:00;26.00;90.60
33207;DHT22;19565;46.602;11.534;2023-09-07T14:23:29;26.00;91.00
33207;DHT22;19565;46.602;11.534;2023-09-07T14:25:58;26.10;90.50
33207;DHT22;19565;46.602;11.534;2023-09-07T14:28:26;26.10;90.40
33207;DHT22;19565;46.602;11.534;2023-09-07T14:30:54;26.20;90.80
33207;DHT22;19565;46.602;11.534;2023-09-07T14:33:22;26.20;90.70
33207;DHT22;19565;46.602;11.534;2023-09-07T14:35:51;26.30;90.90
33207;DHT22;19565;46.602;11.534;2023-09-07T14:38:22;26.40;90.40
33207;DHT22;19565;46.602;11.534;2023-09-07T14:40:53;26.40;90.60
33207;DHT22;19565;46.602;11.534;2023-09-07T14:43:22;26.50;90.60
33207;DHT22;19565;46.602;11.534;2023-09-07T14:45:50;26.60;90.80
33207;DHT22;19565;46.602;11.534;2023-09-07T14:48:18;26.70;91.00
33207;DHT22;19565;46.602;11.534;2023-09-07T14:50:46;26.80;90.50
33207;DHT22;19565;46.602;11.534;2023-09-07T14:53:14;27.00;90.30
33207;DHT22;19565;46.602;11.534;2023-09-07T14:55:44;27.10;90.10
33207;DHT22;19565;46.602;11.534;2023-09-07T14:58:12;27.30;89.80
33207;DHT22;19565;46.602;11.534;2023-09-07T15:00:40;27.50;87.50
33207;DHT22;19565;46.602;11.534;2023-09-07T15:03:08;27.80;87.70
33207;DHT22;19565;46.602;11.534;2023-09-07T15:05:36;28.00;87.20
33207;DHT22;19565;46.602;11.534;2023-09-07T15:08:04;28.30;85.80
33207;DHT22;19565;46.602;11.534;2023-09-07T15:10:33;28.40;86.60
33207;DHT22;19565;46.602;11.534;2023-09-07T15:13:03;28.40;85.80
33207;DHT22;19565;46.602;11.534;2023-09-07T15:15:32;28.30;86.40
33207;DHT22;19565;46.602;11.534;2023-09-07T15:18:03;28.00;86.20
33207;DHT22;19565;46.602;11.534;2023-09-07T15:20:32;27.70;85.80
33207;DHT22;19565;46.602;11.534;2023-09-07T15:23:00;27.40;87.50
33207;DHT22;19565;46.602;11.534;2023-09-07T15:25:30;27.10;87.10